createdAt,value
2018-03-18T00:00:09.638Z,1015.88
2018-03-18T00:01:18.461Z,1015.88
2018-03-18T00:02:27.436Z,1016
2018-03-18T00:03:36.259Z,1016
2018-03-18T00:04:45.182Z,1015.95
2018-03-18T00:05:54.003Z,1016.03
2018-03-18T00:07:02.828Z,1015.95
2018-03-18T00:08:11.953Z,1015.96
2018-03-18T00:09:21.054Z,1015.87
2018-03-18T00:10:29.876Z,1016.02
2018-03-18T00:11:38.702Z,1015.99
2018-03-18T00:12:47.799Z,1016.01
2018-03-18T00:13:56.622Z,1015.94
2018-03-18T00:15:05.447Z,1015.96
2018-03-18T00:16:14.274Z,1015.96
2018-03-18T00:17:23.093Z,1015.95
2018-03-18T00:18:31.930Z,1015.96
2018-03-18T00:19:40.791Z,1015.98
2018-03-18T00:20:49.616Z,1015.98
2018-03-18T00:21:58.444Z,1016.06
2018-03-18T00:23:07.536Z,1016.07
2018-03-18T00:24:16.357Z,1016.04
2018-03-18T00:25:25.242Z,1015.97
2018-03-18T00:26:34.054Z,1016.04
2018-03-18T00:27:43.157Z,1016.07
2018-03-18T00:28:51.979Z,1016.01
2018-03-18T00:30:00.799Z,1016.09
2018-03-18T00:31:09.622Z,1016.02
2018-03-18T00:32:18.459Z,1016.13
2018-03-18T00:33:27.269Z,1016.1
2018-03-18T00:34:36.093Z,1015.97
2018-03-18T00:35:44.917Z,1016.13
2018-03-18T00:36:53.843Z,1016.1
2018-03-18T00:38:02.669Z,1016.21
2018-03-18T00:39:11.764Z,1016.05
2018-03-18T00:40:20.613Z,1016.16
2018-03-18T00:41:29.414Z,1016.21
2018-03-18T00:42:38.488Z,1016.21
2018-03-18T00:43:47.313Z,1016.21
2018-03-18T00:44:56.413Z,1016.07
2018-03-18T00:46:05.284Z,1016.2
2018-03-18T00:47:14.060Z,1016.18
2018-03-18T00:48:22.983Z,1016.2
2018-03-18T00:49:31.804Z,1016.09
2018-03-18T00:50:40.629Z,1016.19
2018-03-18T00:51:49.459Z,1016.26
2018-03-18T00:52:58.279Z,1016.12
2018-03-18T00:54:07.284Z,1016.18
2018-03-18T00:55:16.073Z,1016.14
2018-03-18T00:56:24.898Z,1016.16
2018-03-18T00:57:33.722Z,1016.16
2018-03-18T00:58:42.546Z,1016.14
2018-03-18T00:59:51.747Z,1016.16
2018-03-18T01:01:00.575Z,1016.2
2018-03-18T01:02:09.399Z,1016.23
2018-03-18T01:03:18.229Z,1016.08
2018-03-18T01:04:27.052Z,1016.21
2018-03-18T01:05:36.128Z,1016.21
2018-03-18T01:06:44.950Z,1016.17
2018-03-18T01:07:53.775Z,1016.21
2018-03-18T01:09:02.598Z,1016.25
2018-03-18T01:10:11.418Z,1016.23
2018-03-18T01:11:20.240Z,1016.24
2018-03-18T01:12:29.063Z,1016.27
2018-03-18T01:13:37.885Z,1016.26
2018-03-18T01:14:46.706Z,1016.33
2018-03-18T01:15:55.530Z,1016.26
2018-03-18T01:17:04.352Z,1016.29
2018-03-18T01:18:13.464Z,1016.29
2018-03-18T01:19:22.569Z,1016.31
2018-03-18T01:20:31.394Z,1016.23
2018-03-18T01:21:40.217Z,1016.22
2018-03-18T01:22:49.091Z,1016.19
2018-03-18T01:23:57.914Z,1016.3
2018-03-18T01:25:06.738Z,1016.23
2018-03-18T01:26:15.562Z,1016.2
2018-03-18T01:27:24.658Z,1016.23
2018-03-18T01:28:33.533Z,1016.24
2018-03-18T01:29:42.355Z,1016.19
2018-03-18T01:30:51.179Z,1016.22
2018-03-18T01:32:00.001Z,1016.09
2018-03-18T01:33:09.098Z,1016.11
2018-03-18T01:34:17.921Z,1016.13
2018-03-18T01:35:26.746Z,1016.15
2018-03-18T01:36:35.898Z,1016.1
2018-03-18T01:37:44.676Z,1016.1
2018-03-18T01:38:53.499Z,1016.16
2018-03-18T01:40:02.422Z,1016.2
2018-03-18T01:41:11.245Z,1016.15
2018-03-18T01:42:20.345Z,1016.14
2018-03-18T01:43:29.169Z,1016.11
2018-03-18T01:44:37.997Z,1016.19
2018-03-18T01:45:46.867Z,1016.12
2018-03-18T01:46:55.688Z,1016.15
2018-03-18T01:48:04.512Z,1016.11
2018-03-18T01:49:13.335Z,1016.06
2018-03-18T01:50:22.158Z,1016.08
2018-03-18T01:51:31.229Z,1016.02
2018-03-18T01:53:12.110Z,1016.06
2018-03-18T01:54:20.934Z,1016.07
2018-03-18T01:55:29.757Z,1016.07
2018-03-18T01:56:38.936Z,1016.03
2018-03-18T01:57:48.006Z,1016.03
2018-03-18T01:58:56.827Z,1016.08
2018-03-18T02:00:05.650Z,1015.93
2018-03-18T02:01:14.472Z,1016.02
2018-03-18T02:02:23.677Z,1016.04
2018-03-18T02:03:32.499Z,1016.03
2018-03-18T02:04:41.600Z,1015.99
2018-03-18T02:05:50.423Z,1016.04
2018-03-18T02:06:59.250Z,1016.02
2018-03-18T02:08:08.079Z,1016
2018-03-18T02:09:16.904Z,1016.02
2018-03-18T02:10:26.001Z,1016.06
2018-03-18T02:11:34.823Z,1016
2018-03-18T02:12:43.646Z,1016
2018-03-18T02:13:52.848Z,1015.99
2018-03-18T02:15:01.672Z,1016.05
2018-03-18T02:16:10.490Z,1016
2018-03-18T02:17:19.313Z,1015.99
2018-03-18T02:18:28.418Z,1016
2018-03-18T02:19:37.238Z,1016.02
2018-03-18T02:20:46.060Z,1016.01
2018-03-18T02:21:54.882Z,1016.08
2018-03-18T02:23:03.988Z,1016.02
2018-03-18T02:24:12.809Z,1015.98
2018-03-18T02:25:21.931Z,1015.99
2018-03-18T02:26:30.755Z,1016.04
2018-03-18T02:27:39.580Z,1016
2018-03-18T02:28:48.405Z,1015.95
2018-03-18T02:29:57.229Z,1016
2018-03-18T02:31:06.355Z,1015.94
2018-03-18T02:32:15.470Z,1016
2018-03-18T02:33:24.293Z,1016
2018-03-18T02:34:33.118Z,1016.01
2018-03-18T02:35:42.241Z,1015.97
2018-03-18T02:36:51.218Z,1015.94
2018-03-18T02:38:00.317Z,1016.07
2018-03-18T02:39:09.147Z,1015.96
2018-03-18T02:40:17.965Z,1016.02
2018-03-18T02:41:26.792Z,1015.96
2018-03-18T02:42:35.713Z,1016.12
2018-03-18T02:43:44.537Z,1015.92
2018-03-18T02:44:53.636Z,1015.9
2018-03-18T02:46:02.476Z,1015.93
2018-03-18T02:47:11.287Z,1015.88
2018-03-18T02:48:20.162Z,1015.95
2018-03-18T02:49:28.983Z,1015.92
2018-03-18T02:50:37.813Z,1015.91
2018-03-18T02:51:46.631Z,1015.96
2018-03-18T02:52:55.452Z,1016.03
2018-03-18T02:54:04.274Z,1015.82
2018-03-18T02:55:13.096Z,1015.91
2018-03-18T02:56:22.198Z,1015.92
2018-03-18T02:57:31.298Z,1015.93
2018-03-18T02:58:40.120Z,1015.83
2018-03-18T02:59:49.044Z,1015.88
2018-03-18T03:00:57.866Z,1015.91
2018-03-18T03:02:06.965Z,1015.89
2018-03-18T03:03:15.786Z,1015.83
2018-03-18T03:04:24.889Z,1015.86
2018-03-18T03:05:33.763Z,1015.91
2018-03-18T03:06:42.871Z,1015.88
2018-03-18T03:07:51.689Z,1015.74
2018-03-18T03:09:00.522Z,1015.96
2018-03-18T03:10:09.341Z,1015.94
2018-03-18T03:11:18.513Z,1015.88
2018-03-18T03:12:27.343Z,1015.89
2018-03-18T03:13:36.164Z,1015.95
2018-03-18T03:14:45.268Z,1015.99
2018-03-18T03:15:54.088Z,1015.89
2018-03-18T03:17:03.010Z,1015.87
2018-03-18T03:18:11.833Z,1015.79
2018-03-18T03:19:20.927Z,1015.89
2018-03-18T03:20:29.747Z,1015.82
2018-03-18T03:21:38.846Z,1015.92
2018-03-18T03:22:47.994Z,1015.84
2018-03-18T03:23:57.091Z,1015.87
2018-03-18T03:25:06.186Z,1015.88
2018-03-18T03:26:15.009Z,1015.91
2018-03-18T03:27:23.832Z,1015.89
2018-03-18T03:28:32.804Z,1015.91
2018-03-18T03:29:41.626Z,1015.91
2018-03-18T03:30:50.454Z,1015.85
2018-03-18T03:31:59.321Z,1016.08
2018-03-18T03:33:08.435Z,1015.95
2018-03-18T03:34:17.536Z,1015.9
2018-03-18T03:35:26.360Z,1015.93
2018-03-18T03:36:35.182Z,1015.95
2018-03-18T03:37:44.003Z,1015.96
2018-03-18T03:38:52.826Z,1015.89
2018-03-18T03:40:02.526Z,1015.9
2018-03-18T03:41:11.603Z,1015.84
2018-03-18T03:42:20.424Z,1015.82
2018-03-18T03:43:29.247Z,1015.91
2018-03-18T03:44:38.069Z,1015.89
2018-03-18T03:45:46.991Z,1015.89
2018-03-18T03:46:55.810Z,1015.93
2018-03-18T03:48:04.633Z,1015.87
2018-03-18T03:49:13.605Z,1015.9
2018-03-18T03:50:22.702Z,1015.9
2018-03-18T03:51:31.527Z,1015.93
2018-03-18T03:52:40.350Z,1015.95
2018-03-18T03:53:49.169Z,1015.9
2018-03-18T03:54:58.263Z,1015.85
2018-03-18T03:56:07.083Z,1015.88
2018-03-18T03:57:16.006Z,1015.88
2018-03-18T03:58:24.827Z,1015.86
2018-03-18T03:59:33.652Z,1015.86
2018-03-18T04:00:42.474Z,1015.97
2018-03-18T04:01:51.294Z,1015.9
2018-03-18T04:03:00.267Z,1015.96
2018-03-18T04:04:09.090Z,1015.9
2018-03-18T04:05:17.910Z,1015.92
2018-03-18T04:06:26.730Z,1015.84
2018-03-18T04:07:35.830Z,1015.99
2018-03-18T04:08:44.655Z,1016.01
2018-03-18T04:09:53.481Z,1016.04
2018-03-18T04:11:02.578Z,1015.97
2018-03-18T04:12:11.675Z,1015.92
2018-03-18T04:13:20.497Z,1015.94
2018-03-18T04:14:29.317Z,1015.95
2018-03-18T04:15:38.141Z,1015.96
2018-03-18T04:16:47.240Z,1015.93
2018-03-18T04:17:56.062Z,1016
2018-03-18T04:19:04.886Z,1016.02
2018-03-18T04:20:14.139Z,1015.98
2018-03-18T04:21:22.961Z,1016.01
2018-03-18T04:22:31.782Z,1015.95
2018-03-18T04:23:40.660Z,1016.03
2018-03-18T04:24:49.755Z,1016.06
2018-03-18T04:25:58.577Z,1016.05
2018-03-18T04:27:07.399Z,1016.01
2018-03-18T04:28:16.223Z,1015.98
2018-03-18T04:29:25.325Z,1016.01
2018-03-18T04:30:34.142Z,1015.92
2018-03-18T04:31:42.965Z,1016.07
2018-03-18T04:32:51.787Z,1016.05
2018-03-18T04:34:00.608Z,1015.98
2018-03-18T04:35:09.428Z,1016.08
2018-03-18T04:36:18.251Z,1016.04
2018-03-18T04:37:27.073Z,1016.05
2018-03-18T04:38:35.896Z,1016.12
2018-03-18T04:39:44.718Z,1016.12
2018-03-18T04:40:53.540Z,1016.08
2018-03-18T04:42:02.360Z,1016.14
2018-03-18T04:43:11.182Z,1016.05
2018-03-18T04:44:20.004Z,1016.08
2018-03-18T04:45:28.824Z,1016.09
2018-03-18T04:46:37.648Z,1016.03
2018-03-18T04:47:46.469Z,1016.19
2018-03-18T04:48:55.292Z,1016.09
2018-03-18T04:50:04.113Z,1016.07
2018-03-18T04:51:12.935Z,1016.07
2018-03-18T04:52:21.756Z,1016.14
2018-03-18T04:53:30.577Z,1016.12
2018-03-18T04:54:39.751Z,1016.1
2018-03-18T04:55:48.574Z,1016.1
2018-03-18T04:56:57.395Z,1016.14
2018-03-18T04:58:06.220Z,1016.13
2018-03-18T04:59:15.051Z,1016.15
2018-03-18T05:00:24.290Z,1016.14
2018-03-18T05:01:33.114Z,1016.21
2018-03-18T05:02:41.934Z,1016.18
2018-03-18T05:03:51.034Z,1016.1
2018-03-18T05:04:59.856Z,1016.23
2018-03-18T05:06:08.728Z,1016.16
2018-03-18T05:07:17.549Z,1016.2
2018-03-18T05:08:26.371Z,1016.16
2018-03-18T05:09:35.478Z,1016.19
2018-03-18T05:10:44.577Z,1016.18
2018-03-18T05:11:53.398Z,1016.28
2018-03-18T05:13:02.221Z,1016.14
2018-03-18T05:14:11.318Z,1016.26
2018-03-18T05:15:20.142Z,1016.17
2018-03-18T05:16:28.968Z,1016.14
2018-03-18T05:17:37.839Z,1016.19
2018-03-18T05:18:46.941Z,1016.19
2018-03-18T05:19:55.758Z,1016.27
2018-03-18T05:21:04.581Z,1016.2
2018-03-18T05:22:13.403Z,1016.27
2018-03-18T05:23:22.326Z,1016.26
2018-03-18T05:24:31.148Z,1016.26
2018-03-18T05:25:39.988Z,1016.24
2018-03-18T05:26:48.793Z,1016.22
2018-03-18T05:27:57.617Z,1016.32
2018-03-18T05:29:06.588Z,1016.3
2018-03-18T05:30:15.410Z,1016.34
2018-03-18T05:31:24.232Z,1016.37
2018-03-18T05:32:33.603Z,1016.26
2018-03-18T05:33:42.429Z,1016.23
2018-03-18T05:34:51.446Z,1016.31
2018-03-18T05:36:00.542Z,1016.35
2018-03-18T05:37:09.364Z,1016.36
2018-03-18T05:38:18.185Z,1016.36
2018-03-18T05:39:27.007Z,1016.39
2018-03-18T05:40:35.827Z,1016.35
2018-03-18T05:41:44.649Z,1016.38
2018-03-18T05:42:53.747Z,1016.38
2018-03-18T05:44:02.568Z,1016.4
2018-03-18T05:45:11.391Z,1016.37
2018-03-18T05:46:20.963Z,1016.4
2018-03-18T05:47:29.783Z,1016.37
2018-03-18T05:48:38.605Z,1016.37
2018-03-18T05:49:47.426Z,1016.4
2018-03-18T05:50:56.249Z,1016.37
2018-03-18T05:52:05.172Z,1016.42
2018-03-18T05:53:13.991Z,1016.41
2018-03-18T05:54:23.087Z,1016.47
2018-03-18T05:55:31.914Z,1016.51
2018-03-18T05:56:40.733Z,1016.42
2018-03-18T05:57:49.604Z,1016.61
2018-03-18T05:58:58.427Z,1016.51
2018-03-18T06:00:07.246Z,1016.56
2018-03-18T06:01:16.068Z,1016.56
2018-03-18T06:02:24.890Z,1016.57
2018-03-18T06:03:33.761Z,1016.56
2018-03-18T06:04:42.584Z,1016.7
2018-03-18T06:05:51.405Z,1016.65
2018-03-18T06:07:00.227Z,1016.69
2018-03-18T06:08:09.148Z,1016.62
2018-03-18T06:09:18.172Z,1016.63
2018-03-18T06:10:26.998Z,1016.67
2018-03-18T06:11:35.820Z,1016.67
2018-03-18T06:12:44.642Z,1016.66
2018-03-18T06:13:53.466Z,1016.74
2018-03-18T06:15:02.537Z,1016.69
2018-03-18T06:16:11.357Z,1016.68
2018-03-18T06:17:20.462Z,1016.67
2018-03-18T06:18:29.560Z,1016.65
2018-03-18T06:19:38.388Z,1016.69
2018-03-18T06:20:47.636Z,1016.69
2018-03-18T06:21:56.733Z,1016.7
2018-03-18T06:23:05.558Z,1016.74
2018-03-18T06:24:14.653Z,1016.72
2018-03-18T06:25:23.477Z,1016.83
2018-03-18T06:26:32.398Z,1016.71
2018-03-18T06:27:41.222Z,1016.68
2018-03-18T06:28:50.044Z,1016.79
2018-03-18T06:29:58.865Z,1016.8
2018-03-18T06:31:07.960Z,1016.87
2018-03-18T06:32:16.782Z,1016.82
2018-03-18T06:33:25.604Z,1016.87
2018-03-18T06:34:34.424Z,1016.84
2018-03-18T06:35:43.248Z,1016.86
2018-03-18T06:36:52.079Z,1016.85
2018-03-18T06:38:00.891Z,1016.94
2018-03-18T06:39:09.712Z,1016.85
2018-03-18T06:40:18.808Z,1016.88
2018-03-18T06:41:27.628Z,1016.98
2018-03-18T06:42:36.457Z,1016.87
2018-03-18T06:43:45.552Z,1016.96
2018-03-18T06:44:54.375Z,1016.99
2018-03-18T06:46:03.489Z,1016.85
2018-03-18T06:47:12.310Z,1017.03
2018-03-18T06:48:21.135Z,1016.97
2018-03-18T06:49:30.153Z,1016.9
2018-03-18T06:50:38.975Z,1016.9
2018-03-18T06:51:48.074Z,1016.92
2018-03-18T06:52:56.896Z,1016.94
2018-03-18T06:54:05.734Z,1016.96
2018-03-18T06:55:15.485Z,1016.95
2018-03-18T06:56:24.306Z,1017.08
2018-03-18T06:57:33.129Z,1016.93
2018-03-18T06:58:41.952Z,1016.98
2018-03-18T06:59:50.776Z,1016.95
2018-03-18T07:01:00.277Z,1016.89
2018-03-18T07:02:09.654Z,1016.97
2018-03-18T07:03:18.752Z,1016.94
2018-03-18T07:04:27.575Z,1017
2018-03-18T07:05:36.397Z,1016.91
2018-03-18T07:06:45.272Z,1017.09
2018-03-18T07:07:54.093Z,1016.98
2018-03-18T07:09:02.915Z,1016.95
2018-03-18T07:10:11.739Z,1017.04
2018-03-18T07:11:20.562Z,1017.08
2018-03-18T07:12:29.540Z,1017.01
2018-03-18T07:13:38.636Z,1017.07
2018-03-18T07:14:47.459Z,1017.11
2018-03-18T07:15:56.284Z,1017.27
2018-03-18T07:17:05.108Z,1017.11
2018-03-18T07:18:14.080Z,1017.09
2018-03-18T07:19:22.903Z,1017.15
2018-03-18T07:20:31.727Z,1017.13
2018-03-18T07:21:40.550Z,1017.12
2018-03-18T07:22:49.379Z,1017.19
2018-03-18T07:23:58.526Z,1017.2
2018-03-18T07:25:07.354Z,1017.22
2018-03-18T07:26:16.177Z,1017.17
2018-03-18T07:27:24.998Z,1017.23
2018-03-18T07:28:33.821Z,1017.26
2018-03-18T07:29:42.643Z,1017.22
2018-03-18T07:30:51.467Z,1017.14
2018-03-18T07:32:00.290Z,1017.21
2018-03-18T07:33:09.175Z,1017.21
2018-03-18T07:34:18.250Z,1017.32
2018-03-18T07:35:27.116Z,1017.14
2018-03-18T07:36:35.983Z,1017.21
2018-03-18T07:37:44.760Z,1017.29
2018-03-18T07:38:53.587Z,1017.23
2018-03-18T07:40:02.407Z,1017.3
2018-03-18T07:41:11.531Z,1017.17
2018-03-18T07:42:20.354Z,1017.28
2018-03-18T07:43:29.182Z,1017.23
2018-03-18T07:44:38.000Z,1017.17
2018-03-18T07:45:46.823Z,1017.21
2018-03-18T07:46:55.897Z,1017.27
2018-03-18T07:48:04.999Z,1017.24
2018-03-18T07:49:13.819Z,1017.28
2018-03-18T07:50:22.920Z,1017.24
2018-03-18T07:51:31.743Z,1017.31
2018-03-18T07:52:40.617Z,1017.19
2018-03-18T07:53:49.444Z,1017.22
2018-03-18T07:54:58.264Z,1017.22
2018-03-18T07:56:07.363Z,1017.32
2018-03-18T07:57:16.190Z,1017.28
2018-03-18T07:58:25.309Z,1017.32
2018-03-18T07:59:34.418Z,1017.27
2018-03-18T08:00:43.241Z,1017.32
2018-03-18T08:01:52.064Z,1017.27
2018-03-18T08:03:01.203Z,1017.35
2018-03-18T08:04:10.127Z,1017.35
2018-03-18T08:05:18.956Z,1017.41
2018-03-18T08:06:27.779Z,1017.42
2018-03-18T08:07:36.602Z,1017.35
2018-03-18T08:08:45.429Z,1017.29
2018-03-18T08:09:54.252Z,1017.3
2018-03-18T08:11:03.361Z,1017.38
2018-03-18T08:12:12.185Z,1017.41
2018-03-18T08:13:21.008Z,1017.47
2018-03-18T08:14:29.833Z,1017.43
2018-03-18T08:15:38.956Z,1017.47
2018-03-18T08:16:48.061Z,1017.47
2018-03-18T08:17:56.887Z,1017.46
2018-03-18T08:19:05.710Z,1017.46
2018-03-18T08:20:14.537Z,1017.38
2018-03-18T08:21:23.409Z,1017.5
2018-03-18T08:22:32.232Z,1017.38
2018-03-18T08:23:41.057Z,1017.47
2018-03-18T08:24:49.881Z,1017.47
2018-03-18T08:25:58.705Z,1017.46
2018-03-18T08:27:07.579Z,1017.44
2018-03-18T08:28:16.403Z,1017.47
2018-03-18T08:29:25.227Z,1017.54
2018-03-18T08:30:34.051Z,1017.51
2018-03-18T08:31:42.876Z,1017.56
2018-03-18T08:32:51.701Z,1017.55
2018-03-18T08:34:00.526Z,1017.53
2018-03-18T08:35:09.350Z,1017.5
2018-03-18T08:36:18.180Z,1017.54
2018-03-18T08:37:27.009Z,1017.46
2018-03-18T08:38:35.978Z,1017.55
2018-03-18T08:39:44.798Z,1017.56
2018-03-18T08:40:53.621Z,1017.53
2018-03-18T08:42:02.445Z,1017.51
2018-03-18T08:43:11.546Z,1017.55
2018-03-18T08:44:20.420Z,1017.58
2018-03-18T08:45:29.245Z,1017.55
2018-03-18T08:46:38.347Z,1017.6
2018-03-18T08:47:47.172Z,1017.64
2018-03-18T08:48:55.994Z,1017.71
2018-03-18T08:50:05.306Z,1017.57
2018-03-18T08:51:14.126Z,1017.65
2018-03-18T08:52:22.988Z,1017.62
2018-03-18T08:53:31.776Z,1017.51
2018-03-18T08:54:40.599Z,1017.53
2018-03-18T08:55:49.579Z,1017.45
2018-03-18T08:56:58.684Z,1017.6
2018-03-18T08:58:07.510Z,1017.58
2018-03-18T08:59:16.333Z,1017.59
2018-03-18T09:00:25.156Z,1017.55
2018-03-18T09:01:34.030Z,1017.56
2018-03-18T09:02:42.854Z,1017.53
2018-03-18T09:03:51.955Z,1017.53
2018-03-18T09:05:00.783Z,1017.5
2018-03-18T09:06:09.611Z,1017.54
2018-03-18T09:07:18.685Z,1017.53
2018-03-18T09:08:27.516Z,1017.56
2018-03-18T09:09:36.333Z,1017.67
2018-03-18T09:10:45.158Z,1017.57
2018-03-18T09:11:54.266Z,1017.43
2018-03-18T09:13:03.189Z,1017.46
2018-03-18T09:14:12.011Z,1017.49
2018-03-18T09:15:20.837Z,1017.62
2018-03-18T09:16:29.661Z,1017.54
2018-03-18T09:17:38.487Z,1017.54
2018-03-18T09:18:47.360Z,1017.51
2018-03-18T09:19:56.184Z,1017.52
2018-03-18T09:21:05.294Z,1017.52
2018-03-18T09:22:14.113Z,1017.46
2018-03-18T09:23:22.937Z,1017.53
2018-03-18T09:24:31.811Z,1017.45
2018-03-18T09:25:40.637Z,1017.5
2018-03-18T09:26:49.743Z,1017.51
2018-03-18T09:27:58.570Z,1017.51
2018-03-18T09:29:07.397Z,1017.5
2018-03-18T09:30:16.247Z,1017.51
2018-03-18T09:31:25.047Z,1017.51
2018-03-18T09:32:33.874Z,1017.56
2018-03-18T09:33:42.700Z,1017.56
2018-03-18T09:34:51.526Z,1017.52
2018-03-18T09:36:00.602Z,1017.54
2018-03-18T09:37:09.462Z,1017.49
2018-03-18T09:38:18.256Z,1017.43
2018-03-18T09:39:27.080Z,1017.61
2018-03-18T09:40:35.905Z,1017.44
2018-03-18T09:41:44.830Z,1017.48
2018-03-18T09:42:53.656Z,1017.5
2018-03-18T09:44:02.482Z,1017.49
2018-03-18T09:45:11.580Z,1017.41
2018-03-18T09:46:20.704Z,1017.49
2018-03-18T09:47:29.630Z,1017.49
2018-03-18T09:48:38.455Z,1017.51
2018-03-18T09:49:47.279Z,1017.54
2018-03-18T09:50:56.107Z,1017.57
2018-03-18T09:52:04.935Z,1017.53
2018-03-18T09:53:13.908Z,1017.51
2018-03-18T09:54:22.732Z,1017.52
2018-03-18T09:55:31.558Z,1017.45
2018-03-18T09:56:40.385Z,1017.58
2018-03-18T09:57:49.210Z,1017.47
2018-03-18T09:58:58.285Z,1017.57
2018-03-18T10:00:07.113Z,1017.59
2018-03-18T10:01:15.936Z,1017.53
2018-03-18T10:02:24.763Z,1017.58
2018-03-18T10:03:33.588Z,1017.49
2018-03-18T10:04:42.517Z,1017.5
2018-03-18T10:05:51.625Z,1017.48
2018-03-18T10:07:00.448Z,1017.63
2018-03-18T10:08:09.274Z,1017.58
2018-03-18T10:09:18.099Z,1017.51
2018-03-18T10:10:27.024Z,1017.53
2018-03-18T10:11:35.851Z,1017.58
2018-03-18T10:12:44.957Z,1017.51
2018-03-18T10:13:53.782Z,1017.5
2018-03-18T10:15:02.610Z,1017.47
2018-03-18T10:16:11.586Z,1017.48
2018-03-18T10:17:20.690Z,1017.54
2018-03-18T10:18:29.514Z,1017.53
2018-03-18T10:19:38.340Z,1017.54
2018-03-18T10:20:47.164Z,1017.46
2018-03-18T10:21:56.040Z,1017.49
2018-03-18T10:23:04.863Z,1017.46
2018-03-18T10:24:13.689Z,1017.47
2018-03-18T10:25:22.515Z,1017.5
2018-03-18T10:26:31.349Z,1017.48
2018-03-18T10:27:40.168Z,1017.57
2018-03-18T10:28:48.995Z,1017.5
2018-03-18T10:29:57.821Z,1017.42
2018-03-18T10:31:06.657Z,1017.58
2018-03-18T10:32:15.821Z,1017.52
2018-03-18T10:33:25.331Z,1017.45
2018-03-18T10:34:34.158Z,1017.54
2018-03-18T10:35:42.988Z,1017.64
2018-03-18T10:36:51.812Z,1017.59
2018-03-18T10:38:00.642Z,1017.45
2018-03-18T10:39:09.470Z,1017.51
2018-03-18T10:40:18.296Z,1017.45
2018-03-18T10:41:27.124Z,1017.41
2018-03-18T10:42:36.228Z,1017.43
2018-03-18T10:43:45.055Z,1017.54
2018-03-18T10:44:53.932Z,1017.47
2018-03-18T10:46:03.059Z,1017.48
2018-03-18T10:47:12.183Z,1017.42
2018-03-18T10:48:20.988Z,1017.41
2018-03-18T10:49:29.817Z,1017.49
2018-03-18T10:50:38.642Z,1017.44
2018-03-18T10:51:47.479Z,1017.39
2018-03-18T10:52:56.306Z,1017.41
2018-03-18T10:54:05.134Z,1017.44
2018-03-18T10:55:13.961Z,1017.52
2018-03-18T10:56:22.885Z,1017.53
2018-03-18T10:57:31.712Z,1017.4
2018-03-18T10:58:40.546Z,1017.47
2018-03-18T10:59:49.416Z,1017.37
2018-03-18T11:00:58.242Z,1017.48
2018-03-18T11:02:07.219Z,1017.42
2018-03-18T11:03:16.046Z,1017.49
2018-03-18T11:04:24.876Z,1017.39
2018-03-18T11:05:33.698Z,1017.35
2018-03-18T11:06:42.527Z,1017.33
2018-03-18T11:07:51.357Z,1017.37
2018-03-18T11:09:00.232Z,1017.36
2018-03-18T11:10:09.010Z,1017.37
2018-03-18T11:11:17.837Z,1017.29
2018-03-18T11:12:26.666Z,1017.48
2018-03-18T11:13:35.647Z,1017.43
2018-03-18T11:14:44.747Z,1017.47
2018-03-18T11:15:53.578Z,1017.37
2018-03-18T11:17:02.404Z,1017.39
2018-03-18T11:18:11.233Z,1017.35
2018-03-18T11:19:20.260Z,1017.37
2018-03-18T11:20:29.040Z,1017.32
2018-03-18T11:21:37.863Z,1017.39
2018-03-18T11:22:46.690Z,1017.44
2018-03-18T11:23:55.515Z,1017.42
2018-03-18T11:25:04.397Z,1017.34
2018-03-18T11:26:13.224Z,1017.29
2018-03-18T11:27:22.052Z,1017.34
2018-03-18T11:28:30.880Z,1017.38
2018-03-18T11:29:39.709Z,1017.3
2018-03-18T11:30:48.637Z,1017.42
2018-03-18T11:31:57.463Z,1017.33
2018-03-18T11:33:06.290Z,1017.29
2018-03-18T11:34:15.119Z,1017.29
2018-03-18T11:35:23.949Z,1017.25
2018-03-18T11:36:32.826Z,1017.21
2018-03-18T11:37:41.655Z,1017.21
2018-03-18T11:38:50.482Z,1017.25
2018-03-18T11:39:59.310Z,1017.31
2018-03-18T11:41:08.415Z,1017.26
2018-03-18T11:42:17.390Z,1017.26
2018-03-18T11:43:26.219Z,1017.28
2018-03-18T11:44:35.048Z,1017.23
2018-03-18T11:45:43.877Z,1017.14
2018-03-18T11:46:52.707Z,1017.16
2018-03-18T11:48:01.963Z,1017.2
2018-03-18T11:49:10.792Z,1017.2
2018-03-18T11:50:19.620Z,1017.43
2018-03-18T11:51:28.737Z,1017.2
2018-03-18T11:52:37.566Z,1017.25
2018-03-18T11:53:46.444Z,1017.23
2018-03-18T11:54:55.268Z,1017.27
2018-03-18T11:56:04.663Z,1017.23
2018-03-18T11:57:13.482Z,1017.19
2018-03-18T11:58:22.312Z,1017.14
2018-03-18T11:59:31.470Z,1017.24
2018-03-18T12:00:40.305Z,1017.28
2018-03-18T12:01:49.126Z,1017.16
2018-03-18T12:02:57.957Z,1017.2
2018-03-18T12:04:06.780Z,1017.13
2018-03-18T12:05:16.315Z,1017.15
2018-03-18T12:06:25.171Z,1017.16
2018-03-18T12:07:33.973Z,1017.12
2018-03-18T12:08:42.803Z,1017.11
2018-03-18T12:09:51.633Z,1017.18
2018-03-18T12:11:00.512Z,1017.33
2018-03-18T12:12:09.341Z,1017.27
2018-03-18T12:13:18.172Z,1017.26
2018-03-18T12:14:27.553Z,1017.22
2018-03-18T12:15:36.383Z,1017.23
2018-03-18T12:16:45.217Z,1017.16
2018-03-18T12:17:54.051Z,1017.23
2018-03-18T12:19:02.883Z,1017.19
2018-03-18T12:20:11.992Z,1017.21
2018-03-18T12:21:20.822Z,1017.18
2018-03-18T12:22:29.757Z,1017.24
2018-03-18T12:23:38.598Z,1017.28
2018-03-18T12:24:47.430Z,1017.3
2018-03-18T12:25:56.263Z,1017.16
2018-03-18T12:27:05.101Z,1017.14
2018-03-18T12:28:14.187Z,1017.14
2018-03-18T12:29:23.024Z,1017.24
2018-03-18T12:30:31.861Z,1017.09
2018-03-18T12:31:40.702Z,1017.18
2018-03-18T12:32:49.818Z,1017.17
2018-03-18T12:33:58.807Z,1017.11
2018-03-18T12:35:07.651Z,1017.22
2018-03-18T12:36:16.475Z,1017.24
2018-03-18T12:37:25.312Z,1017.06
2018-03-18T12:38:34.147Z,1017.1
2018-03-18T12:39:43.035Z,1017.09
2018-03-18T12:40:51.873Z,1017.08
2018-03-18T12:42:00.984Z,1017.02
2018-03-18T12:43:09.820Z,1016.96
2018-03-18T12:44:18.661Z,1016.96
2018-03-18T12:45:27.593Z,1016.86
2018-03-18T12:46:36.430Z,1017.03
2018-03-18T12:47:45.824Z,1016.87
2018-03-18T12:48:54.662Z,1016.89
2018-03-18T12:50:03.497Z,1016.98
2018-03-18T12:51:12.334Z,1016.84
2018-03-18T12:52:21.171Z,1016.94
2018-03-18T12:53:30.010Z,1016.94
2018-03-18T12:54:38.851Z,1016.83
2018-03-18T12:55:47.688Z,1016.82
2018-03-18T12:56:56.577Z,1016.79
2018-03-18T12:58:05.415Z,1016.89
2018-03-18T12:59:14.254Z,1016.84
2018-03-18T13:00:23.091Z,1016.83
2018-03-18T13:01:31.929Z,1016.78
2018-03-18T13:02:40.817Z,1016.85
2018-03-18T13:03:49.936Z,1016.86
2018-03-18T13:04:59.050Z,1016.78
2018-03-18T13:06:07.894Z,1016.79
2018-03-18T13:07:17.109Z,1016.79
2018-03-18T13:08:26.248Z,1016.77
2018-03-18T13:09:35.086Z,1016.83
2018-03-18T13:10:44.210Z,1016.69
2018-03-18T13:11:53.328Z,1016.7
2018-03-18T13:13:02.168Z,1016.67
2018-03-18T13:14:11.156Z,1016.71
2018-03-18T13:15:20.286Z,1016.62
2018-03-18T13:16:29.391Z,1016.75
2018-03-18T13:17:38.514Z,1016.67
2018-03-18T13:18:47.362Z,1016.71
2018-03-18T13:19:56.259Z,1016.74
2018-03-18T13:21:05.110Z,1016.67
2018-03-18T13:22:13.956Z,1016.65
2018-03-18T13:23:22.806Z,1016.64
2018-03-18T13:24:31.656Z,1016.61
2018-03-18T13:25:40.660Z,1016.62
2018-03-18T13:26:49.503Z,1016.56
2018-03-18T13:27:58.351Z,1016.53
2018-03-18T13:29:07.193Z,1016.49
2018-03-18T13:30:16.031Z,1016.47
2018-03-18T13:31:24.871Z,1016.5
2018-03-18T13:32:33.700Z,1016.53
2018-03-18T13:33:42.594Z,1016.47
2018-03-18T13:34:51.430Z,1016.49
2018-03-18T13:36:00.268Z,1016.49
2018-03-18T13:37:09.201Z,1016.46
2018-03-18T13:38:18.036Z,1016.49
2018-03-18T13:39:26.872Z,1016.38
2018-03-18T13:40:35.707Z,1016.5
2018-03-18T13:41:44.543Z,1016.43
2018-03-18T13:42:53.431Z,1016.37
2018-03-18T13:44:02.271Z,1016.41
2018-03-18T13:45:11.107Z,1016.54
2018-03-18T13:46:19.956Z,1016.4
2018-03-18T13:47:28.801Z,1016.48
2018-03-18T13:48:37.789Z,1016.42
2018-03-18T13:49:46.631Z,1016.43
2018-03-18T13:50:55.538Z,1016.37
2018-03-18T13:52:04.376Z,1016.46
2018-03-18T13:53:13.211Z,1016.42
2018-03-18T13:54:22.294Z,1016.45
2018-03-18T13:55:31.134Z,1016.49
2018-03-18T13:56:39.969Z,1016.5